sensor_id;sensor_type;location;lat;lon;timestamp;P1;durP1;ratioP1;P2;durP2;ratioP2
19907;SDS011;10116;53.112;7.356;2024-03-23T00:52:23;2.67;;;2.23;;
19907;SDS011;10116;53.112;7.356;2024-03-23T00:54:49;5.87;;;2.30;;
19907;SDS011;10116;53.112;7.356;2024-03-23T00:57:15;3.93;;;2.10;;
19907;SDS011;10116;53.112;7.356;2024-03-23T00:59:40;4.47;;;2.60;;
19907;SDS011;10116;53.112;7.356;2024-03-23T01:02:06;1.77;;;1.63;;
19907;SDS011;10116;53.112;7.356;2024-03-23T01:04:32;3.23;;;2.40;;
19907;SDS011;10116;53.112;7.356;2024-03-23T01:06:57;3.37;;;2.13;;
19907;SDS011;10116;53.112;7.356;2024-03-23T01:09:23;3.70;;;2.30;;
19907;SDS011;10116;53.112;7.356;2024-03-23T01:11:48;3.57;;;2.10;;
19907;SDS011;10116;53.112;7.356;2024-03-23T01:14:14;2.70;;;2.10;;
19907;SDS011;10116;53.112;7.356;2024-03-23T01:16:39;1.90;;;1.67;;
19907;SDS011;10116;53.112;7.356;2024-03-23T01:19:05;2.27;;;2.07;;
19907;SDS011;10116;53.112;7.356;2024-03-23T01:21:31;2.30;;;1.83;;
19907;SDS011;10116;53.112;7.356;2024-03-23T01:23:57;2.30;;;2.00;;
19907;SDS011;10116;53.112;7.356;2024-03-23T01:26:22;2.23;;;2.03;;
19907;SDS011;10116;53.112;7.356;2024-03-23T01:28:48;3.53;;;2.10;;
19907;SDS011;10116;53.112;7.356;2024-03-23T01:31:13;2.90;;;2.20;;
19907;SDS011;10116;53.112;7.356;2024-03-23T01:33:41;2.60;;;2.07;;
19907;SDS011;10116;53.112;7.356;2024-03-23T01:36:06;2.67;;;2.20;;
19907;SDS011;10116;53.112;7.356;2024-03-23T01:38:32;2.63;;;2.03;;
19907;SDS011;10116;53.112;7.356;2024-03-23T01:40:57;3.20;;;2.10;;
19907;SDS011;10116;53.112;7.356;2024-03-23T01:43:23;4.10;;;2.30;;
19907;SDS011;10116;53.112;7.356;2024-03-23T01:45:49;3.57;;;2.30;;
19907;SDS011;10116;53.112;7.356;2024-03-23T01:48:15;3.03;;;2.13;;
19907;SDS011;10116;53.112;7.356;2024-03-23T01:50:41;4.20;;;2.33;;
19907;SDS011;10116;53.112;7.356;2024-03-23T01:53:06;3.00;;;2.00;;
19907;SDS011;10116;53.112;7.356;2024-03-23T01:55:32;2.53;;;2.03;;
19907;SDS011;10116;53.112;7.356;2024-03-23T01:57:58;3.30;;;2.07;;
19907;SDS011;10116;53.112;7.356;2024-03-23T02:00:24;1.93;;;1.70;;
19907;SDS011;10116;53.112;7.356;2024-03-23T02:02:52;2.07;;;1.93;;
19907;SDS011;10116;53.112;7.356;2024-03-23T02:05:17;2.87;;;2.10;;
19907;SDS011;10116;53.112;7.356;2024-03-23T02:07:43;3.87;;;2.50;;
19907;SDS011;10116;53.112;7.356;2024-03-23T02:10:09;4.13;;;2.40;;
19907;SDS011;10116;53.112;7.356;2024-03-23T02:12:36;4.50;;;2.20;;
19907;SDS011;10116;53.112;7.356;2024-03-23T02:15:02;3.10;;;1.80;;
19907;SDS011;10116;53.112;7.356;2024-03-23T02:17:30;4.20;;;2.03;;
19907;SDS011;10116;53.112;7.356;2024-03-23T02:19:57;3.30;;;2.20;;
19907;SDS011;10116;53.112;7.356;2024-03-23T02:22:22;3.63;;;2.40;;
19907;SDS011;10116;53.112;7.356;2024-03-23T02:24:48;3.97;;;2.60;;
19907;SDS011;10116;53.112;7.356;2024-03-23T02:27:13;2.70;;;1.83;;
19907;SDS011;10116;53.112;7.356;2024-03-23T02:29:39;3.07;;;2.40;;
19907;SDS011;10116;53.112;7.356;2024-03-23T02:32:05;2.47;;;2.03;;
19907;SDS011;10116;53.112;7.356;2024-03-23T02:34:31;5.03;;;2.63;;
19907;SDS011;10116;53.112;7.356;2024-03-23T02:36:57;4.10;;;2.43;;
19907;SDS011;10116;53.112;7.356;2024-03-23T02:39:22;2.93;;;1.73;;
19907;SDS011;10116;53.112;7.356;2024-03-23T02:41:48;4.30;;;2.53;;
19907;SDS011;10116;53.112;7.356;2024-03-23T02:44:13;1.83;;;1.43;;
19907;SDS011;10116;53.112;7.356;2024-03-23T02:46:39;6.00;;;2.30;;
19907;SDS011;10116;53.112;7.356;2024-03-23T02:49:05;4.70;;;2.20;;
19907;SDS011;10116;53.112;7.356;2024-03-23T02:51:31;2.37;;;2.17;;
19907;SDS011;10116;53.112;7.356;2024-03-23T02:53:56;3.93;;;2.07;;
19907;SDS011;10116;53.112;7.356;2024-03-23T02:56:22;1.97;;;1.77;;
19907;SDS011;10116;53.112;7.356;2024-03-23T02:58:48;3.63;;;2.00;;
19907;SDS011;10116;53.112;7.356;2024-03-23T03:01:13;3.00;;;2.20;;
19907;SDS011;10116;53.112;7.356;2024-03-23T03:03:39;2.20;;;2.00;;
19907;SDS011;10116;53.112;7.356;2024-03-23T03:06:05;3.40;;;1.90;;
19907;SDS011;10116;53.112;7.356;2024-03-23T03:08:31;3.60;;;2.10;;
19907;SDS011;10116;53.112;7.356;2024-03-23T03:10:56;2.40;;;2.10;;
19907;SDS011;10116;53.112;7.356;2024-03-23T03:13:22;5.13;;;2.50;;
19907;SDS011;10116;53.112;7.356;2024-03-23T03:15:48;3.13;;;1.80;;
19907;SDS011;10116;53.112;7.356;2024-03-23T03:18:13;2.87;;;2.20;;
19907;SDS011;10116;53.112;7.356;2024-03-23T03:20:40;3.77;;;2.57;;
19907;SDS011;10116;53.112;7.356;2024-03-23T03:23:06;3.27;;;2.00;;
19907;SDS011;10116;53.112;7.356;2024-03-23T03:25:32;3.10;;;1.97;;
19907;SDS011;10116;53.112;7.356;2024-03-23T03:27:57;4.03;;;2.30;;
19907;SDS011;10116;53.112;7.356;2024-03-23T03:30:24;3.57;;;2.27;;
19907;SDS011;10116;53.112;7.356;2024-03-23T03:32:50;3.17;;;2.33;;
19907;SDS011;10116;53.112;7.356;2024-03-23T03:35:20;3.27;;;2.23;;
19907;SDS011;10116;53.112;7.356;2024-03-23T03:37:45;1.97;;;1.77;;
19907;SDS011;10116;53.112;7.356;2024-03-23T03:40:11;7.03;;;2.00;;
19907;SDS011;10116;53.112;7.356;2024-03-23T03:42:39;4.90;;;2.17;;
19907;SDS011;10116;53.112;7.356;2024-03-23T03:45:06;2.43;;;1.80;;
19907;SDS011;10116;53.112;7.356;2024-03-23T03:47:32;2.50;;;1.90;;
19907;SDS011;10116;53.112;7.356;2024-03-23T03:49:57;2.87;;;2.10;;
19907;SDS011;10116;53.112;7.356;2024-03-23T03:52:23;3.33;;;1.80;;
19907;SDS011;10116;53.112;7.356;2024-03-23T03:54:48;4.67;;;2.33;;
19907;SDS011;10116;53.112;7.356;2024-03-23T03:57:14;2.97;;;2.23;;
19907;SDS011;10116;53.112;7.356;2024-03-23T03:59:40;4.00;;;1.80;;
19907;SDS011;10116;53.112;7.356;2024-03-23T04:02:05;3.23;;;1.73;;
19907;SDS011;10116;53.112;7.356;2024-03-23T04:04:31;4.13;;;1.73;;
19907;SDS011;10116;53.112;7.356;2024-03-23T04:07:00;2.20;;;2.00;;
19907;SDS011;10116;53.112;7.356;2024-03-23T04:09:26;2.43;;;2.00;;
19907;SDS011;10116;53.112;7.356;2024-03-23T04:11:52;3.33;;;1.70;;
19907;SDS011;10116;53.112;7.356;2024-03-23T04:14:18;3.33;;;2.00;;
19907;SDS011;10116;53.112;7.356;2024-03-23T04:16:43;2.70;;;1.73;;
19907;SDS011;10116;53.112;7.356;2024-03-23T04:19:09;5.13;;;2.10;;
19907;SDS011;10116;53.112;7.356;2024-03-23T04:21:35;3.37;;;2.13;;
19907;SDS011;10116;53.112;7.356;2024-03-23T04:24:02;4.67;;;2.33;;
19907;SDS011;10116;53.112;7.356;2024-03-23T04:26:28;4.10;;;2.30;;
19907;SDS011;10116;53.112;7.356;2024-03-23T04:28:54;4.53;;;1.97;;
19907;SDS011;10116;53.112;7.356;2024-03-23T04:31:19;3.43;;;1.90;;
19907;SDS011;10116;53.112;7.356;2024-03-23T04:33:45;3.77;;;2.10;;
19907;SDS011;10116;53.112;7.356;2024-03-23T04:36:10;2.13;;;1.80;;
19907;SDS011;10116;53.112;7.356;2024-03-23T04:38:36;2.50;;;1.73;;
19907;SDS011;10116;53.112;7.356;2024-03-23T04:41:02;5.47;;;2.37;;
19907;SDS011;10116;53.112;7.356;2024-03-23T04:43:28;2.57;;;2.03;;
19907;SDS011;10116;53.112;7.356;2024-03-23T04:45:54;2.13;;;1.70;;
19907;SDS011;10116;53.112;7.356;2024-03-23T04:48:20;2.83;;;1.90;;
19907;SDS011;10116;53.112;7.356;2024-03-23T04:50:47;2.87;;;1.70;;
19907;SDS011;10116;53.112;7.356;2024-03-23T04:53:14;4.07;;;2.43;;
19907;SDS011;10116;53.112;7.356;2024-03-23T04:55:41;2.63;;;2.10;;
19907;SDS011;10116;53.112;7.356;2024-03-23T04:58:07;2.80;;;2.07;;
19907;SDS011;10116;53.112;7.356;2024-03-23T05:00:32;2.20;;;1.97;;
19907;SDS011;10116;53.112;7.356;2024-03-23T05:02:58;5.63;;;2.33;;
19907;SDS011;10116;53.112;7.356;2024-03-23T05:05:23;3.80;;;1.73;;
19907;SDS011;10116;53.112;7.356;2024-03-23T05:07:49;2.83;;;2.10;;
19907;SDS011;10116;53.112;7.356;2024-03-23T05:10:15;4.07;;;2.10;;
19907;SDS011;10116;53.112;7.356;2024-03-23T05:12:41;2.40;;;2.00;;
19907;SDS011;10116;53.112;7.356;2024-03-23T05:15:07;2.60;;;1.93;;
19907;SDS011;10116;53.112;7.356;2024-03-23T05:17:33;3.63;;;2.30;;
19907;SDS011;10116;53.112;7.356;2024-03-23T05:19:59;5.60;;;2.50;;
19907;SDS011;10116;53.112;7.356;2024-03-23T05:22:25;2.70;;;1.80;;
19907;SDS011;10116;53.112;7.356;2024-03-23T05:24:52;4.47;;;2.30;;
19907;SDS011;10116;53.112;7.356;2024-03-23T05:27:18;2.80;;;1.97;;
19907;SDS011;10116;53.112;7.356;2024-03-23T05:29:43;3.90;;;2.33;;
19907;SDS011;10116;53.112;7.356;2024-03-23T05:32:09;2.30;;;1.80;;
19907;SDS011;10116;53.112;7.356;2024-03-23T05:34:35;3.03;;;1.77;;
19907;SDS011;10116;53.112;7.356;2024-03-23T05:37:00;1.83;;;1.60;;
19907;SDS011;10116;53.112;7.356;2024-03-23T05:39:26;2.03;;;1.83;;
19907;SDS011;10116;53.112;7.356;2024-03-23T05:41:52;2.50;;;1.73;;
19907;SDS011;10116;53.112;7.356;2024-03-23T05:44:18;1.90;;;1.67;;
19907;SDS011;10116;53.112;7.356;2024-03-23T05:46:43;4.20;;;2.03;;
19907;SDS011;10116;53.112;7.356;2024-03-23T05:49:13;2.03;;;1.90;;
19907;SDS011;10116;53.112;7.356;2024-03-23T05:51:39;3.43;;;2.00;;
19907;SDS011;10116;53.112;7.356;2024-03-23T05:54:05;2.37;;;1.60;;
19907;SDS011;10116;53.112;7.356;2024-03-23T05:56:30;3.30;;;1.90;;
19907;SDS011;10116;53.112;7.356;2024-03-23T05:58:56;2.20;;;1.57;;
19907;SDS011;10116;53.112;7.356;2024-03-23T06:01:22;2.67;;;2.13;;
19907;SDS011;10116;53.112;7.356;2024-03-23T06:03:48;2.83;;;2.10;;
19907;SDS011;10116;53.112;7.356;2024-03-23T06:06:13;3.13;;;2.03;;
19907;SDS011;10116;53.112;7.356;2024-03-23T06:08:39;3.87;;;2.23;;
19907;SDS011;10116;53.112;7.356;2024-03-23T06:11:05;5.13;;;2.50;;
19907;SDS011;10116;53.112;7.356;2024-03-23T06:13:33;4.20;;;2.20;;
19907;SDS011;10116;53.112;7.356;2024-03-23T06:16:00;3.13;;;2.37;;
19907;SDS011;10116;53.112;7.356;2024-03-23T06:18:29;5.47;;;2.27;;
19907;SDS011;10116;53.112;7.356;2024-03-23T06:20:54;6.43;;;2.90;;
19907;SDS011;10116;53.112;7.356;2024-03-23T06:23:20;9.43;;;3.10;;
19907;SDS011;10116;53.112;7.356;2024-03-23T06:25:46;5.77;;;2.83;;
19907;SDS011;10116;53.112;7.356;2024-03-23T06:28:12;15.07;;;3.90;;
19907;SDS011;10116;53.112;7.356;2024-03-23T06:30:39;13.03;;;3.33;;
19907;SDS011;10116;53.112;7.356;2024-03-23T06:33:04;8.57;;;3.00;;
19907;SDS011;10116;53.112;7.356;2024-03-23T06:35:30;7.93;;;2.90;;
19907;SDS011;10116;53.112;7.356;2024-03-23T06:37:56;8.47;;;2.77;;
19907;SDS011;10116;53.112;7.356;2024-03-23T06:40:24;10.17;;;2.80;;
19907;SDS011;10116;53.112;7.356;2024-03-23T06:42:49;5.77;;;2.90;;
19907;SDS011;10116;53.112;7.356;2024-03-23T06:45:16;6.33;;;2.80;;
19907;SDS011;10116;53.112;7.356;2024-03-23T06:47:42;6.57;;;2.70;;
19907;SDS011;10116;53.112;7.356;2024-03-23T06:50:07;6.43;;;2.67;;
19907;SDS011;10116;53.112;7.356;2024-03-23T06:52:35;6.63;;;2.50;;
19907;SDS011;10116;53.112;7.356;2024-03-23T06:55:01;7.47;;;2.77;;
19907;SDS011;10116;53.112;7.356;2024-03-23T06:57:29;5.63;;;2.57;;
19907;SDS011;10116;53.112;7.356;2024-03-23T06:59:55;9.23;;;3.00;;
19907;SDS011;10116;53.112;7.356;2024-03-23T07:02:20;6.00;;;2.40;;
19907;SDS011;10116;53.112;7.356;2024-03-23T07:04:46;4.53;;;2.47;;
19907;SDS011;10116;53.112;7.356;2024-03-23T07:07:12;3.23;;;2.23;;
19907;SDS011;10116;53.112;7.356;2024-03-23T07:09:37;7.60;;;2.70;;
19907;SDS011;10116;53.112;7.356;2024-03-23T07:12:03;4.47;;;2.53;;
19907;SDS011;10116;53.112;7.356;2024-03-23T07:14:29;6.33;;;2.93;;
19907;SDS011;10116;53.112;7.356;2024-03-23T07:16:55;6.90;;;2.50;;
19907;SDS011;10116;53.112;7.356;2024-03-23T07:19:21;5.40;;;2.40;;
19907;SDS011;10116;53.112;7.356;2024-03-23T07:21:47;4.60;;;2.60;;
19907;SDS011;10116;53.112;7.356;2024-03-23T07:24:13;2.63;;;2.17;;
19907;SDS011;10116;53.112;7.356;2024-03-23T07:26:38;2.67;;;1.97;;
19907;SDS011;10116;53.112;7.356;2024-03-23T07:29:05;4.43;;;2.50;;
19907;SDS011;10116;53.112;7.356;2024-03-23T07:31:31;4.70;;;1.73;;
19907;SDS011;10116;53.112;7.356;2024-03-23T07:33:57;4.83;;;2.00;;
19907;SDS011;10116;53.112;7.356;2024-03-23T07:36:22;3.57;;;2.13;;
19907;SDS011;10116;53.112;7.356;2024-03-23T07:38:48;5.00;;;2.30;;
19907;SDS011;10116;53.112;7.356;2024-03-23T07:41:20;3.77;;;2.13;;
19907;SDS011;10116;53.112;7.356;2024-03-23T07:43:46;4.40;;;2.60;;
19907;SDS011;10116;53.112;7.356;2024-03-23T07:46:13;7.83;;;2.53;;
19907;SDS011;10116;53.112;7.356;2024-03-23T07:48:39;5.20;;;2.47;;
19907;SDS011;10116;53.112;7.356;2024-03-23T07:51:13;4.20;;;1.80;;
19907;SDS011;10116;53.112;7.356;2024-03-23T07:53:46;5.57;;;2.20;;
19907;SDS011;10116;53.112;7.356;2024-03-23T07:56:13;4.10;;;2.07;;
19907;SDS011;10116;53.112;7.356;2024-03-23T07:58:40;6.00;;;2.37;;
19907;SDS011;10116;53.112;7.356;2024-03-23T08:01:13;5.97;;;2.23;;
19907;SDS011;10116;53.112;7.356;2024-03-23T08:03:41;6.07;;;2.10;;
19907;SDS011;10116;53.112;7.356;2024-03-23T08:06:17;3.90;;;2.27;;
19907;SDS011;10116;53.112;7.356;2024-03-23T08:08:48;6.60;;;2.40;;
19907;SDS011;10116;53.112;7.356;2024-03-23T08:11:24;5.03;;;2.30;;
19907;SDS011;10116;53.112;7.356;2024-03-23T08:13:50;2.40;;;1.80;;
19907;SDS011;10116;53.112;7.356;2024-03-23T08:16:16;3.53;;;2.00;;
19907;SDS011;10116;53.112;7.356;2024-03-23T08:18:41;4.53;;;2.10;;
19907;SDS011;10116;53.112;7.356;2024-03-23T08:21:07;5.13;;;1.97;;
19907;SDS011;10116;53.112;7.356;2024-03-23T08:23:33;3.10;;;1.70;;
19907;SDS011;10116;53.112;7.356;2024-03-23T08:26:03;6.27;;;2.20;;
19907;SDS011;10116;53.112;7.356;2024-03-23T08:28:33;3.37;;;1.90;;
19907;SDS011;10116;53.112;7.356;2024-03-23T08:31:09;5.10;;;1.87;;
19907;SDS011;10116;53.112;7.356;2024-03-23T08:33:36;1.73;;;1.40;;
19907;SDS011;10116;53.112;7.356;2024-03-23T08:36:04;3.30;;;1.67;;
19907;SDS011;10116;53.112;7.356;2024-03-23T08:38:30;3.30;;;1.97;;
19907;SDS011;10116;53.112;7.356;2024-03-23T08:40:57;6.47;;;1.90;;
19907;SDS011;10116;53.112;7.356;2024-03-23T08:43:23;1.83;;;1.43;;
19907;SDS011;10116;53.112;7.356;2024-03-23T08:45:49;4.13;;;1.87;;
19907;SDS011;10116;53.112;7.356;2024-03-23T08:48:14;2.63;;;1.73;;
19907;SDS011;10116;53.112;7.356;2024-03-23T08:50:40;1.80;;;1.40;;
19907;SDS011;10116;53.112;7.356;2024-03-23T08:53:06;9.33;;;2.30;;
19907;SDS011;10116;53.112;7.356;2024-03-23T08:55:32;3.00;;;1.70;;
19907;SDS011;10116;53.112;7.356;2024-03-23T08:57:57;5.30;;;1.70;;
19907;SDS011;10116;53.112;7.356;2024-03-23T09:00:23;5.17;;;1.87;;
19907;SDS011;10116;53.112;7.356;2024-03-23T09:02:49;3.77;;;1.70;;
19907;SDS011;10116;53.112;7.356;2024-03-23T09:05:15;2.43;;;1.37;;
19907;SDS011;10116;53.112;7.356;2024-03-23T09:07:41;5.07;;;1.70;;
19907;SDS011;10116;53.112;7.356;2024-03-23T09:10:07;3.33;;;1.40;;
19907;SDS011;10116;53.112;7.356;2024-03-23T09:12:32;3.00;;;1.90;;
19907;SDS011;10116;53.112;7.356;2024-03-23T09:14:58;3.47;;;1.23;;
19907;SDS011;10116;53.112;7.356;2024-03-23T09:17:24;3.57;;;1.90;;
19907;SDS011;10116;53.112;7.356;2024-03-23T09:19:49;1.77;;;1.60;;
19907;SDS011;10116;53.112;7.356;2024-03-23T09:22:15;2.77;;;1.60;;
19907;SDS011;10116;53.112;7.356;2024-03-23T09:24:40;1.83;;;1.30;;
19907;SDS011;10116;53.112;7.356;2024-03-23T09:27:06;3.70;;;1.60;;
19907;SDS011;10116;53.112;7.356;2024-03-23T09:29:32;3.80;;;1.40;;
19907;SDS011;10116;53.112;7.356;2024-03-23T09:31:57;2.70;;;1.30;;
19907;SDS011;10116;53.112;7.356;2024-03-23T09:34:23;3.03;;;1.50;;
19907;SDS011;10116;53.112;7.356;2024-03-23T09:36:52;2.37;;;1.47;;
19907;SDS011;10116;53.112;7.356;2024-03-23T09:39:17;2.63;;;1.67;;
19907;SDS011;10116;53.112;7.356;2024-03-23T09:41:44;3.00;;;1.63;;
19907;SDS011;10116;53.112;7.356;2024-03-23T09:44:10;1.70;;;1.60;;
19907;SDS011;10116;53.112;7.356;2024-03-23T09:46:36;2.20;;;1.60;;
19907;SDS011;10116;53.112;7.356;2024-03-23T09:49:03;1.80;;;1.23;;
19907;SDS011;10116;53.112;7.356;2024-03-23T09:51:30;3.80;;;1.80;;
19907;SDS011;10116;53.112;7.356;2024-03-23T09:53:56;3.37;;;1.70;;
19907;SDS011;10116;53.112;7.356;2024-03-23T09:56:22;3.43;;;1.43;;
19907;SDS011;10116;53.112;7.356;2024-03-23T09:58:49;1.93;;;1.33;;
19907;SDS011;10116;53.112;7.356;2024-03-23T10:01:14;3.00;;;1.60;;
19907;SDS011;10116;53.112;7.356;2024-03-23T10:03:44;4.70;;;2.07;;
19907;SDS011;10116;53.112;7.356;2024-03-23T10:06:10;4.47;;;1.90;;
19907;SDS011;10116;53.112;7.356;2024-03-23T10:08:36;2.97;;;1.83;;
19907;SDS011;10116;53.112;7.356;2024-03-23T10:11:14;2.97;;;1.67;;
19907;SDS011;10116;53.112;7.356;2024-03-23T10:13:44;3.67;;;1.73;;
19907;SDS011;10116;53.112;7.356;2024-03-23T10:16:11;8.67;;;2.10;;
19907;SDS011;10116;53.112;7.356;2024-03-23T10:18:40;2.80;;;1.77;;
19907;SDS011;10116;53.112;7.356;2024-03-23T10:23:33;6.93;;;2.00;;
19907;SDS011;10116;53.112;7.356;2024-03-23T10:26:16;1.80;;;1.60;;
19907;SDS011;10116;53.112;7.356;2024-03-23T10:28:55;2.00;;;1.57;;
19907;SDS011;10116;53.112;7.356;2024-03-23T10:31:33;3.00;;;1.37;;
19907;SDS011;10116;53.112;7.356;2024-03-23T10:34:00;4.90;;;1.90;;
19907;SDS011;10116;53.112;7.356;2024-03-23T10:36:27;4.30;;;2.07;;
19907;SDS011;10116;53.112;7.356;2024-03-23T10:38:55;14.87;;;2.20;;
19907;SDS011;10116;53.112;7.356;2024-03-23T10:41:24;3.50;;;1.80;;
19907;SDS011;10116;53.112;7.356;2024-03-23T10:43:52;9.47;;;2.17;;
19907;SDS011;10116;53.112;7.356;2024-03-23T10:46:20;4.93;;;1.77;;
19907;SDS011;10116;53.112;7.356;2024-03-23T10:48:46;6.27;;;1.87;;
19907;SDS011;10116;53.112;7.356;2024-03-23T10:51:12;2.50;;;1.43;;
19907;SDS011;10116;53.112;7.356;2024-03-23T10:53:39;2.53;;;1.33;;
19907;SDS011;10116;53.112;7.356;2024-03-23T10:56:05;4.00;;;1.60;;
19907;SDS011;10116;53.112;7.356;2024-03-23T10:58:39;5.30;;;1.13;;
19907;SDS011;10116;53.112;7.356;2024-03-23T11:01:12;1.73;;;1.40;;
19907;SDS011;10116;53.112;7.356;2024-03-23T11:03:39;3.70;;;1.50;;
19907;SDS011;10116;53.112;7.356;2024-03-23T11:06:10;3.90;;;1.70;;
19907;SDS011;10116;53.112;7.356;2024-03-23T11:08:39;2.10;;;1.13;;
19907;SDS011;10116;53.112;7.356;2024-03-23T11:13:48;2.93;;;1.63;;
19907;SDS011;10116;53.112;7.356;2024-03-23T11:16:27;4.20;;;1.33;;
19907;SDS011;10116;53.112;7.356;2024-03-23T11:22:05;1.53;;;1.27;;
19907;SDS011;10116;53.112;7.356;2024-03-23T11:24:31;2.53;;;1.27;;
19907;SDS011;10116;53.112;7.356;2024-03-23T11:26:57;2.60;;;1.27;;
19907;SDS011;10116;53.112;7.356;2024-03-23T11:29:29;4.00;;;1.40;;
19907;SDS011;10116;53.112;7.356;2024-03-23T11:31:55;2.20;;;1.03;;
19907;SDS011;10116;53.112;7.356;2024-03-23T11:34:21;1.77;;;1.30;;
19907;SDS011;10116;53.112;7.356;2024-03-23T11:36:47;3.47;;;1.83;;
19907;SDS011;10116;53.112;7.356;2024-03-23T11:39:16;1.60;;;1.00;;
19907;SDS011;10116;53.112;7.356;2024-03-23T11:41:56;1.60;;;1.33;;
19907;SDS011;10116;53.112;7.356;2024-03-23T11:44:22;6.17;;;1.40;;
19907;SDS011;10116;53.112;7.356;2024-03-23T11:46:50;2.77;;;1.70;;
19907;SDS011;10116;53.112;7.356;2024-03-23T11:49:26;1.93;;;1.33;;
19907;SDS011;10116;53.112;7.356;2024-03-23T11:51:53;3.93;;;1.70;;
19907;SDS011;10116;53.112;7.356;2024-03-23T11:54:20;1.30;;;1.20;;
19907;SDS011;10116;53.112;7.356;2024-03-23T11:56:59;2.00;;;1.00;;
19907;SDS011;10116;53.112;7.356;2024-03-23T12:04:39;13.83;;;1.60;;
19907;SDS011;10116;53.112;7.356;2024-03-23T12:09:37;3.70;;;1.33;;
19907;SDS011;10116;53.112;7.356;2024-03-23T12:12:10;2.10;;;1.30;;
19907;SDS011;10116;53.112;7.356;2024-03-23T12:14:40;1.30;;;1.10;;
19907;SDS011;10116;53.112;7.356;2024-03-23T12:19:35;3.60;;;1.07;;
19907;SDS011;10116;53.112;7.356;2024-03-23T12:22:02;1.47;;;1.20;;
19907;SDS011;10116;53.112;7.356;2024-03-23T12:24:29;2.40;;;1.10;;
19907;SDS011;10116;53.112;7.356;2024-03-23T12:26:55;1.90;;;1.40;;
19907;SDS011;10116;53.112;7.356;2024-03-23T12:29:25;2.97;;;1.33;;
19907;SDS011;10116;53.112;7.356;2024-03-23T12:31:53;4.03;;;1.70;;
19907;SDS011;10116;53.112;7.356;2024-03-23T12:34:19;2.10;;;1.40;;
19907;SDS011;10116;53.112;7.356;2024-03-23T12:36:44;1.13;;;1.03;;
19907;SDS011;10116;53.112;7.356;2024-03-23T12:39:10;2.17;;;1.30;;
19907;SDS011;10116;53.112;7.356;2024-03-23T12:41:35;5.20;;;1.10;;
19907;SDS011;10116;53.112;7.356;2024-03-23T12:44:01;1.03;;;0.87;;
19907;SDS011;10116;53.112;7.356;2024-03-23T12:46:27;2.20;;;1.10;;
19907;SDS011;10116;53.112;7.356;2024-03-23T12:48:52;2.20;;;1.17;;
19907;SDS011;10116;53.112;7.356;2024-03-23T12:51:18;1.17;;;1.07;;
19907;SDS011;10116;53.112;7.356;2024-03-23T12:53:43;2.10;;;1.37;;
19907;SDS011;10116;53.112;7.356;2024-03-23T12:56:12;2.00;;;1.23;;
19907;SDS011;10116;53.112;7.356;2024-03-23T12:58:38;2.47;;;1.40;;
19907;SDS011;10116;53.112;7.356;2024-03-23T13:01:03;4.07;;;1.37;;
19907;SDS011;10116;53.112;7.356;2024-03-23T13:03:31;2.50;;;1.00;;
19907;SDS011;10116;53.112;7.356;2024-03-23T13:05:57;2.30;;;0.87;;
19907;SDS011;10116;53.112;7.356;2024-03-23T13:08:22;1.50;;;0.93;;
19907;SDS011;10116;53.112;7.356;2024-03-23T13:10:51;3.10;;;1.30;;
19907;SDS011;10116;53.112;7.356;2024-03-23T13:13:17;4.80;;;1.50;;
19907;SDS011;10116;53.112;7.356;2024-03-23T13:15:48;5.40;;;1.73;;
19907;SDS011;10116;53.112;7.356;2024-03-23T13:18:17;3.40;;;1.53;;
19907;SDS011;10116;53.112;7.356;2024-03-23T13:20:43;5.60;;;1.43;;
19907;SDS011;10116;53.112;7.356;2024-03-23T13:23:09;2.40;;;1.17;;
19907;SDS011;10116;53.112;7.356;2024-03-23T13:25:34;4.73;;;1.00;;
19907;SDS011;10116;53.112;7.356;2024-03-23T13:28:01;1.07;;;0.80;;
19907;SDS011;10116;53.112;7.356;2024-03-23T13:30:27;4.10;;;1.23;;
19907;SDS011;10116;53.112;7.356;2024-03-23T13:32:53;4.73;;;1.20;;
19907;SDS011;10116;53.112;7.356;2024-03-23T13:35:18;1.33;;;0.90;;
19907;SDS011;10116;53.112;7.356;2024-03-23T13:37:44;3.67;;;1.07;;
19907;SDS011;10116;53.112;7.356;2024-03-23T13:40:10;3.20;;;1.50;;
19907;SDS011;10116;53.112;7.356;2024-03-23T13:42:36;3.67;;;1.13;;
19907;SDS011;10116;53.112;7.356;2024-03-23T13:45:02;1.60;;;1.00;;
19907;SDS011;10116;53.112;7.356;2024-03-23T13:47:28;1.97;;;1.13;;
19907;SDS011;10116;53.112;7.356;2024-03-23T13:49:53;2.10;;;0.87;;
19907;SDS011;10116;53.112;7.356;2024-03-23T13:52:19;2.60;;;1.00;;
19907;SDS011;10116;53.112;7.356;2024-03-23T13:54:47;1.20;;;1.10;;
19907;SDS011;10116;53.112;7.356;2024-03-23T13:57:13;2.10;;;0.93;;
19907;SDS011;10116;53.112;7.356;2024-03-23T13:59:39;0.83;;;0.83;;
19907;SDS011;10116;53.112;7.356;2024-03-23T14:02:05;3.57;;;1.00;;
19907;SDS011;10116;53.112;7.356;2024-03-23T14:04:30;3.00;;;1.20;;
19907;SDS011;10116;53.112;7.356;2024-03-23T14:06:56;5.17;;;1.13;;
19907;SDS011;10116;53.112;7.356;2024-03-23T14:09:23;2.73;;;1.00;;
19907;SDS011;10116;53.112;7.356;2024-03-23T14:11:50;4.53;;;1.13;;
19907;SDS011;10116;53.112;7.356;2024-03-23T14:14:16;14.47;;;0.83;;
19907;SDS011;10116;53.112;7.356;2024-03-23T14:16:43;3.53;;;1.23;;
19907;SDS011;10116;53.112;7.356;2024-03-23T14:19:09;2.33;;;1.20;;
19907;SDS011;10116;53.112;7.356;2024-03-23T14:21:35;3.13;;;1.60;;
19907;SDS011;10116;53.112;7.356;2024-03-23T14:24:01;2.70;;;1.20;;
19907;SDS011;10116;53.112;7.356;2024-03-23T14:26:27;2.67;;;0.93;;
19907;SDS011;10116;53.112;7.356;2024-03-23T14:28:53;2.67;;;1.50;;
19907;SDS011;10116;53.112;7.356;2024-03-23T14:31:18;1.77;;;0.93;;
19907;SDS011;10116;53.112;7.356;2024-03-23T14:33:44;1.80;;;1.00;;
19907;SDS011;10116;53.112;7.356;2024-03-23T14:36:13;3.50;;;1.10;;
19907;SDS011;10116;53.112;7.356;2024-03-23T14:38:39;2.80;;;1.03;;
19907;SDS011;10116;53.112;7.356;2024-03-23T14:41:05;2.50;;;1.30;;
19907;SDS011;10116;53.112;7.356;2024-03-23T14:43:30;2.40;;;1.03;;
19907;SDS011;10116;53.112;7.356;2024-03-23T14:46:12;5.37;;;1.90;;
19907;SDS011;10116;53.112;7.356;2024-03-23T14:48:40;1.80;;;1.00;;
19907;SDS011;10116;53.112;7.356;2024-03-23T14:51:07;2.37;;;1.33;;
19907;SDS011;10116;53.112;7.356;2024-03-23T14:53:36;5.23;;;1.60;;
19907;SDS011;10116;53.112;7.356;2024-03-23T14:56:05;2.97;;;1.40;;
19907;SDS011;10116;53.112;7.356;2024-03-23T14:58:31;2.00;;;1.30;;
19907;SDS011;10116;53.112;7.356;2024-03-23T15:01:03;6.00;;;1.37;;
19907;SDS011;10116;53.112;7.356;2024-03-23T15:03:30;4.50;;;1.27;;
19907;SDS011;10116;53.112;7.356;2024-03-23T15:05:56;3.57;;;1.43;;
19907;SDS011;10116;53.112;7.356;2024-03-23T15:08:23;2.73;;;1.17;;
19907;SDS011;10116;53.112;7.356;2024-03-23T15:10:49;3.13;;;1.00;;
19907;SDS011;10116;53.112;7.356;2024-03-23T15:13:15;2.70;;;1.33;;
19907;SDS011;10116;53.112;7.356;2024-03-23T15:15:41;3.10;;;2.00;;
19907;SDS011;10116;53.112;7.356;2024-03-23T15:18:12;2.73;;;1.60;;
19907;SDS011;10116;53.112;7.356;2024-03-23T15:20:39;2.73;;;1.53;;
19907;SDS011;10116;53.112;7.356;2024-03-23T15:23:06;4.87;;;2.23;;
19907;SDS011;10116;53.112;7.356;2024-03-23T15:25:31;2.37;;;1.33;;
19907;SDS011;10116;53.112;7.356;2024-03-23T15:27:57;2.57;;;1.50;;
19907;SDS011;10116;53.112;7.356;2024-03-23T15:30:24;4.40;;;1.47;;
19907;SDS011;10116;53.112;7.356;2024-03-23T15:32:50;2.93;;;1.80;;
19907;SDS011;10116;53.112;7.356;2024-03-23T15:35:15;5.50;;;2.17;;
19907;SDS011;10116;53.112;7.356;2024-03-23T15:37:41;3.70;;;1.53;;
19907;SDS011;10116;53.112;7.356;2024-03-23T15:40:07;2.90;;;1.57;;
19907;SDS011;10116;53.112;7.356;2024-03-23T15:42:35;4.87;;;1.70;;
19907;SDS011;10116;53.112;7.356;2024-03-23T15:45:00;2.20;;;1.37;;
19907;SDS011;10116;53.112;7.356;2024-03-23T15:47:28;8.13;;;2.37;;
19907;SDS011;10116;53.112;7.356;2024-03-23T15:49:54;4.50;;;1.90;;
19907;SDS011;10116;53.112;7.356;2024-03-23T15:52:20;6.10;;;1.90;;
19907;SDS011;10116;53.112;7.356;2024-03-23T15:54:46;4.13;;;1.80;;